createdAt,value
2023-05-20T00:01:07.740Z,7.97
2023-05-20T00:04:49.865Z,7.93
2023-05-20T00:08:31.891Z,8.63
2023-05-20T00:12:14.379Z,8.23
2023-05-20T00:15:56.450Z,8.75
2023-05-20T00:19:38.384Z,8.50
2023-05-20T00:23:20.561Z,8.98
2023-05-20T00:27:03.488Z,8.43
2023-05-20T00:30:45.430Z,9.43
2023-05-20T00:34:27.429Z,9.13
2023-05-20T00:38:09.421Z,9.20
2023-05-20T00:41:51.363Z,7.95
2023-05-20T00:45:33.715Z,7.30
2023-05-20T00:49:16.307Z,7.75
2023-05-20T00:52:58.891Z,8.05
2023-05-20T00:56:41.885Z,8.40
2023-05-20T01:00:23.998Z,8.55
2023-05-20T01:04:06.047Z,7.90
2023-05-20T01:07:48.061Z,8.30
2023-05-20T01:11:37.748Z,7.60
2023-05-20T01:15:22.453Z,7.65
2023-05-20T01:19:15.577Z,7.50
2023-05-20T01:22:57.695Z,6.97
2023-05-20T01:26:39.859Z,7.43
2023-05-20T01:30:22.475Z,7.25
2023-05-20T01:34:05.817Z,6.90
2023-05-20T01:37:48.482Z,7.47
2023-05-20T01:41:31.183Z,7.43
2023-05-20T01:45:13.143Z,7.43
2023-05-20T01:48:55.164Z,8.43
2023-05-20T01:52:37.402Z,7.82
2023-05-20T01:56:19.377Z,7.35
2023-05-20T02:00:01.517Z,7.22
2023-05-20T02:03:43.431Z,6.72
2023-05-20T02:07:25.371Z,6.13
2023-05-20T02:11:07.349Z,7.10
2023-05-20T02:14:50.512Z,6.63
2023-05-20T02:18:32.885Z,5.55
2023-05-20T02:22:15.355Z,5.73
2023-05-20T02:25:57.871Z,5.70
2023-05-20T02:29:39.854Z,4.85
2023-05-20T02:33:21.822Z,5.40
2023-05-20T02:37:03.985Z,5.97
2023-05-20T02:40:46.183Z,4.78
2023-05-20T02:44:28.097Z,5.18
2023-05-20T02:48:10.149Z,5.70
2023-05-20T02:51:52.131Z,5.50
2023-05-20T02:55:37.358Z,5.50
2023-05-20T02:59:20.056Z,5.87
2023-05-20T03:03:02.903Z,4.68
2023-05-20T03:06:46.599Z,5.15
2023-05-20T03:10:28.582Z,4.83
2023-05-20T03:14:10.543Z,5.32
2023-05-20T03:17:52.524Z,5.03
2023-05-20T03:21:34.510Z,5.55
2023-05-20T03:25:16.585Z,5.87
2023-05-20T03:28:58.529Z,6.13
2023-05-20T03:32:40.679Z,5.03
2023-05-20T03:36:22.598Z,5.93
2023-05-20T03:40:06.394Z,5.90
2023-05-20T03:43:48.366Z,5.25
2023-05-20T03:47:30.539Z,5.23
2023-05-20T03:51:12.467Z,5.35
2023-05-20T03:54:54.933Z,6.07
2023-05-20T03:58:38.782Z,5.03
2023-05-20T04:02:21.834Z,5.80
2023-05-20T04:06:03.872Z,6.05
2023-05-20T04:09:46.571Z,5.90
2023-05-20T04:13:28.691Z,5.90
2023-05-20T04:17:10.694Z,5.32
2023-05-20T04:20:55.532Z,5.63
2023-05-20T04:24:38.285Z,5.70
2023-05-20T04:28:23.922Z,5.25
2023-05-20T04:32:11.046Z,6.70
2023-05-20T04:35:53.671Z,5.93
2023-05-20T04:39:37.032Z,5.87
2023-05-20T04:43:19.398Z,5.90
2023-05-20T04:47:04.570Z,6.10
2023-05-20T04:50:47.245Z,5.90
2023-05-20T04:54:30.120Z,6.35
2023-05-20T04:58:17.734Z,6.05
2023-05-20T05:02:00.303Z,6.57
2023-05-20T05:05:43.058Z,5.82
2023-05-20T05:09:34.789Z,5.88
2023-05-20T05:13:17.493Z,6.57
2023-05-20T05:16:59.686Z,6.00
2023-05-20T05:20:52.675Z,6.88
2023-05-20T05:24:35.386Z,6.47
2023-05-20T05:28:17.877Z,6.67
2023-05-20T05:32:03.637Z,6.72
2023-05-20T05:35:46.315Z,7.43
2023-05-20T05:39:38.219Z,7.72
2023-05-20T05:43:27.737Z,6.88
2023-05-20T05:47:10.628Z,7.38
2023-05-20T05:55:04.380Z,7.07
2023-05-20T05:58:48.508Z,6.57
2023-05-20T06:02:52.300Z,6.93
2023-05-20T06:10:47.413Z,6.95
2023-05-20T06:14:29.770Z,6.30
2023-05-20T06:18:19.313Z,7.45
2023-05-20T06:22:02.111Z,7.55
2023-05-20T06:25:48.004Z,6.97
2023-05-20T06:29:36.656Z,6.90
2023-05-20T06:33:31.677Z,6.20
2023-05-20T06:38:01.279Z,6.53
2023-05-20T06:42:32.049Z,6.70
2023-05-20T06:47:00.310Z,6.25
2023-05-20T06:51:28.520Z,6.30
2023-05-20T07:00:17.709Z,5.57
2023-05-20T07:08:19.542Z,5.82
2023-05-20T07:16:06.334Z,5.72
2023-05-20T07:20:48.057Z,5.20
2023-05-20T07:25:01.369Z,5.40
2023-05-20T07:33:07.976Z,5.50
2023-05-20T07:45:15.375Z,4.88
2023-05-20T07:48:58.187Z,5.15
2023-05-20T07:56:44.231Z,4.78
2023-05-20T08:04:44.367Z,4.88
2023-05-20T08:12:30.081Z,4.40
2023-05-20T08:16:46.996Z,4.30
2023-05-20T08:21:18.148Z,4.17
2023-05-20T08:30:10.085Z,4.45
2023-05-20T08:43:47.696Z,3.70
2023-05-20T08:57:21.484Z,4.93
2023-05-20T09:10:52.859Z,5.00
2023-05-20T09:15:11.624Z,5.03
2023-05-20T13:10:54.765Z,3.40
2023-05-20T13:15:25.088Z,3.30
2023-05-20T14:32:50.777Z,2.78
2023-05-20T14:54:32.922Z,3.35
2023-05-20T19:49:37.441Z,3.88
2023-05-20T19:58:32.422Z,3.30
2023-05-20T20:07:36.188Z,3.75
2023-05-20T20:11:18.241Z,3.65
2023-05-20T20:15:00.275Z,3.92
2023-05-20T20:18:42.322Z,3.65
2023-05-20T20:22:24.701Z,3.85
2023-05-20T20:26:07.732Z,2.60
2023-05-20T20:29:49.742Z,2.75
2023-05-20T20:33:31.997Z,3.17
2023-05-20T20:37:15.356Z,2.80
2023-05-20T20:40:59.466Z,3.08
2023-05-20T20:44:48.551Z,2.92
2023-05-20T20:48:30.543Z,3.33
2023-05-20T20:52:12.547Z,3.60
2023-05-20T20:55:54.564Z,3.50
2023-05-20T20:59:36.779Z,3.65
2023-05-20T21:03:19.090Z,3.50
2023-05-20T21:07:02.347Z,3.05
2023-05-20T21:10:44.677Z,3.10
2023-05-20T21:14:27.652Z,3.53
2023-05-20T21:18:09.699Z,3.70
2023-05-20T21:21:51.716Z,3.70
2023-05-20T21:25:34.027Z,3.47
2023-05-20T21:29:16.459Z,3.58
2023-05-20T21:32:58.461Z,3.80
2023-05-20T21:36:40.518Z,3.42
2023-05-20T21:40:22.533Z,3.43
2023-05-20T21:44:04.854Z,3.33
2023-05-20T21:47:47.015Z,3.22
2023-05-20T21:51:29.046Z,3.47
2023-05-20T21:55:11.153Z,3.13
2023-05-20T21:58:53.143Z,2.80
2023-05-20T22:02:35.267Z,3.28
2023-05-20T22:06:17.351Z,2.85
2023-05-20T22:10:00.332Z,3.30
2023-05-20T22:13:43.509Z,3.53
2023-05-20T22:17:26.158Z,3.20
2023-05-20T22:21:08.173Z,3.25
2023-05-20T22:24:50.188Z,3.15
2023-05-20T22:28:32.317Z,2.97
2023-05-20T22:32:14.369Z,3.35
2023-05-20T22:35:58.475Z,3.35
2023-05-20T22:39:40.502Z,3.60
2023-05-20T22:43:23.827Z,2.78
2023-05-20T22:47:05.949Z,2.67
2023-05-20T22:50:48.388Z,2.90
2023-05-20T22:54:30.318Z,3.03
2023-05-20T22:58:14.922Z,3.08
2023-05-20T23:01:57.442Z,2.97
2023-05-20T23:05:39.463Z,2.83
2023-05-20T23:09:21.666Z,2.97
2023-05-20T23:13:03.618Z,3.00
2023-05-20T23:16:45.748Z,2.67
2023-05-20T23:20:29.410Z,2.90
2023-05-20T23:24:11.991Z,2.75
2023-05-20T23:27:53.969Z,2.85
2023-05-20T23:31:36.088Z,3.10
2023-05-20T23:35:18.726Z,2.90
2023-05-20T23:39:01.799Z,3.10
2023-05-20T23:42:44.003Z,2.77
2023-05-20T23:46:26.039Z,2.53
2023-05-20T23:50:08.579Z,3.30
2023-05-20T23:53:50.691Z,2.53
2023-05-20T23:57:32.671Z,3.10
